sensor_id;sensor_type;location;lat;lon;timestamp;temperature;humidity
70548;DHT22;58099;43.406;3.698;2022-08-01T00:01:54;27.10;86.20
70548;DHT22;58099;43.406;3.698;2022-08-01T00:04:20;27.20;85.50
70548;DHT22;58099;43.406;3.698;2022-08-01T00:06:45;27.20;85.30
70548;DHT22;58099;43.406;3.698;2022-08-01T00:09:11;27.30;85.50
70548;DHT22;58099;43.406;3.698;2022-08-01T00:11:37;27.30;85.30
70548;DHT22;58099;43.406;3.698;2022-08-01T00:14:03;27.30;84.60
70548;DHT22;58099;43.406;3.698;2022-08-01T00:16:28;27.30;84.20
70548;DHT22;58099;43.406;3.698;2022-08-01T00:18:54;27.30;84.90
70548;DHT22;58099;43.406;3.698;2022-08-01T00:21:21;27.30;84.80
70548;DHT22;58099;43.406;3.698;2022-08-01T00:23:47;27.40;83.20
70548;DHT22;58099;43.406;3.698;2022-08-01T00:26:13;27.50;82.50
70548;DHT22;58099;43.406;3.698;2022-08-01T00:28:39;27.50;82.00
70548;DHT22;58099;43.406;3.698;2022-08-01T00:31:04;27.60;81.70
70548;DHT22;58099;43.406;3.698;2022-08-01T00:33:30;27.60;81.90
70548;DHT22;58099;43.406;3.698;2022-08-01T00:35:56;27.60;82.20
70548;DHT22;58099;43.406;3.698;2022-08-01T00:38:21;27.60;82.30
70548;DHT22;58099;43.406;3.698;2022-08-01T00:40:48;27.60;83.00
70548;DHT22;58099;43.406;3.698;2022-08-01T00:43:14;27.60;85.90
70548;DHT22;58099;43.406;3.698;2022-08-01T00:45:40;27.50;86.90
70548;DHT22;58099;43.406;3.698;2022-08-01T00:48:06;27.40;86.20
70548;DHT22;58099;43.406;3.698;2022-08-01T00:50:32;27.50;84.30
70548;DHT22;58099;43.406;3.698;2022-08-01T00:52:59;27.50;83.00
70548;DHT22;58099;43.406;3.698;2022-08-01T00:55:29;27.50;83.10
70548;DHT22;58099;43.406;3.698;2022-08-01T00:57:56;27.50;82.70
70548;DHT22;58099;43.406;3.698;2022-08-01T01:00:22;27.50;82.70
70548;DHT22;58099;43.406;3.698;2022-08-01T01:02:48;27.40;82.90
70548;DHT22;58099;43.406;3.698;2022-08-01T01:05:14;27.50;83.00
70548;DHT22;58099;43.406;3.698;2022-08-01T01:10:25;27.30;83.00
70548;DHT22;58099;43.406;3.698;2022-08-01T01:13:09;27.30;83.30
70548;DHT22;58099;43.406;3.698;2022-08-01T01:18:22;27.30;83.60
70548;DHT22;58099;43.406;3.698;2022-08-01T01:21:24;27.30;83.60
70548;DHT22;58099;43.406;3.698;2022-08-01T01:26:59;27.20;83.80
70548;DHT22;58099;43.406;3.698;2022-08-01T01:29:31;27.20;84.10
70548;DHT22;58099;43.406;3.698;2022-08-01T01:32:06;27.20;84.20
70548;DHT22;58099;43.406;3.698;2022-08-01T01:34:37;27.10;84.40
70548;DHT22;58099;43.406;3.698;2022-08-01T01:37:06;27.10;84.40
70548;DHT22;58099;43.406;3.698;2022-08-01T01:39:34;27.10;84.60
70548;DHT22;58099;43.406;3.698;2022-08-01T01:42:01;27.10;84.60
70548;DHT22;58099;43.406;3.698;2022-08-01T01:44:28;27.10;84.70
70548;DHT22;58099;43.406;3.698;2022-08-01T01:46:56;27.00;84.90
70548;DHT22;58099;43.406;3.698;2022-08-01T01:49:25;27.00;85.00
70548;DHT22;58099;43.406;3.698;2022-08-01T01:51:54;27.00;85.00
70548;DHT22;58099;43.406;3.698;2022-08-01T01:54:22;27.00;84.90
70548;DHT22;58099;43.406;3.698;2022-08-01T01:56:50;27.00;84.90
70548;DHT22;58099;43.406;3.698;2022-08-01T01:59:21;27.00;84.90
70548;DHT22;58099;43.406;3.698;2022-08-01T02:01:51;27.00;85.00
70548;DHT22;58099;43.406;3.698;2022-08-01T02:04:20;27.00;85.00
70548;DHT22;58099;43.406;3.698;2022-08-01T02:06:47;27.00;84.90
70548;DHT22;58099;43.406;3.698;2022-08-01T02:09:17;27.00;84.50
70548;DHT22;58099;43.406;3.698;2022-08-01T02:11:45;27.00;84.20
70548;DHT22;58099;43.406;3.698;2022-08-01T02:14:13;27.00;84.10
70548;DHT22;58099;43.406;3.698;2022-08-01T02:16:40;27.00;84.00
70548;DHT22;58099;43.406;3.698;2022-08-01T02:19:07;27.00;83.50
70548;DHT22;58099;43.406;3.698;2022-08-01T02:21:43;27.00;83.70
70548;DHT22;58099;43.406;3.698;2022-08-01T02:24:13;27.00;83.70
70548;DHT22;58099;43.406;3.698;2022-08-01T02:26:43;27.00;83.10
70548;DHT22;58099;43.406;3.698;2022-08-01T02:29:13;27.00;83.20
70548;DHT22;58099;43.406;3.698;2022-08-01T02:31:41;27.00;82.80
70548;DHT22;58099;43.406;3.698;2022-08-01T02:34:13;27.00;83.00
70548;DHT22;58099;43.406;3.698;2022-08-01T02:36:41;27.00;82.90
70548;DHT22;58099;43.406;3.698;2022-08-01T02:39:13;27.00;82.80
70548;DHT22;58099;43.406;3.698;2022-08-01T02:41:43;26.90;83.10
70548;DHT22;58099;43.406;3.698;2022-08-01T02:44:18;26.90;82.80
70548;DHT22;58099;43.406;3.698;2022-08-01T02:46:54;26.90;82.60
70548;DHT22;58099;43.406;3.698;2022-08-01T02:49:23;26.90;82.60
70548;DHT22;58099;43.406;3.698;2022-08-01T02:51:50;26.90;82.60
70548;DHT22;58099;43.406;3.698;2022-08-01T02:54:18;26.90;82.60
70548;DHT22;58099;43.406;3.698;2022-08-01T02:56:47;26.90;82.80
70548;DHT22;58099;43.406;3.698;2022-08-01T02:59:16;26.90;82.80
70548;DHT22;58099;43.406;3.698;2022-08-01T03:01:44;26.90;82.90
70548;DHT22;58099;43.406;3.698;2022-08-01T03:04:12;26.90;83.10
70548;DHT22;58099;43.406;3.698;2022-08-01T03:06:39;26.90;83.20
70548;DHT22;58099;43.406;3.698;2022-08-01T03:09:06;26.90;83.20
70548;DHT22;58099;43.406;3.698;2022-08-01T03:11:33;26.90;83.10
70548;DHT22;58099;43.406;3.698;2022-08-01T03:14:02;26.80;83.10
70548;DHT22;58099;43.406;3.698;2022-08-01T03:16:30;26.80;83.10
70548;DHT22;58099;43.406;3.698;2022-08-01T03:18:58;26.80;83.10
70548;DHT22;58099;43.406;3.698;2022-08-01T03:21:27;26.80;82.90
70548;DHT22;58099;43.406;3.698;2022-08-01T03:23:55;26.70;83.10
70548;DHT22;58099;43.406;3.698;2022-08-01T03:26:26;26.70;82.90
70548;DHT22;58099;43.406;3.698;2022-08-01T03:28:54;26.70;82.80
70548;DHT22;58099;43.406;3.698;2022-08-01T03:31:20;26.70;83.40
70548;DHT22;58099;43.406;3.698;2022-08-01T03:33:46;26.70;82.60
70548;DHT22;58099;43.406;3.698;2022-08-01T03:36:12;26.70;82.50
70548;DHT22;58099;43.406;3.698;2022-08-01T03:38:40;26.70;82.50
70548;DHT22;58099;43.406;3.698;2022-08-01T03:41:18;26.70;82.30
70548;DHT22;58099;43.406;3.698;2022-08-01T03:43:56;26.70;82.20
70548;DHT22;58099;43.406;3.698;2022-08-01T03:46:26;26.70;82.20
70548;DHT22;58099;43.406;3.698;2022-08-01T03:48:55;26.70;82.00
70548;DHT22;58099;43.406;3.698;2022-08-01T03:51:24;26.70;82.10
70548;DHT22;58099;43.406;3.698;2022-08-01T03:53:51;26.60;82.00
70548;DHT22;58099;43.406;3.698;2022-08-01T03:56:19;26.60;82.20
70548;DHT22;58099;43.406;3.698;2022-08-01T03:58:46;26.60;82.30
70548;DHT22;58099;43.406;3.698;2022-08-01T04:01:13;26.60;82.60
70548;DHT22;58099;43.406;3.698;2022-08-01T04:03:40;26.50;83.10
70548;DHT22;58099;43.406;3.698;2022-08-01T04:06:07;26.50;83.50
70548;DHT22;58099;43.406;3.698;2022-08-01T04:08:39;26.50;83.90
70548;DHT22;58099;43.406;3.698;2022-08-01T04:11:05;26.40;84.10
70548;DHT22;58099;43.406;3.698;2022-08-01T04:13:33;26.40;84.60
70548;DHT22;58099;43.406;3.698;2022-08-01T04:15:59;26.30;85.00
70548;DHT22;58099;43.406;3.698;2022-08-01T04:18:24;26.30;85.30
70548;DHT22;58099;43.406;3.698;2022-08-01T04:20:50;26.30;85.60
70548;DHT22;58099;43.406;3.698;2022-08-01T04:23:18;26.30;86.10
70548;DHT22;58099;43.406;3.698;2022-08-01T04:25:46;26.20;86.30
70548;DHT22;58099;43.406;3.698;2022-08-01T04:28:13;26.20;86.70
70548;DHT22;58099;43.406;3.698;2022-08-01T04:30:43;26.10;86.90
70548;DHT22;58099;43.406;3.698;2022-08-01T04:33:13;26.10;87.10
70548;DHT22;58099;43.406;3.698;2022-08-01T04:35:44;26.10;87.50
70548;DHT22;58099;43.406;3.698;2022-08-01T04:38:14;26.10;87.80
70548;DHT22;58099;43.406;3.698;2022-08-01T04:40:42;26.10;88.00
70548;DHT22;58099;43.406;3.698;2022-08-01T04:43:11;26.00;88.00
70548;DHT22;58099;43.406;3.698;2022-08-01T04:45:37;25.90;87.80
70548;DHT22;58099;43.406;3.698;2022-08-01T04:48:05;25.90;86.90
70548;DHT22;58099;43.406;3.698;2022-08-01T04:50:32;26.00;86.70
70548;DHT22;58099;43.406;3.698;2022-08-01T04:52:58;26.00;86.20
70548;DHT22;58099;43.406;3.698;2022-08-01T04:55:23;26.00;84.80
70548;DHT22;58099;43.406;3.698;2022-08-01T04:57:49;26.00;84.10
70548;DHT22;58099;43.406;3.698;2022-08-01T05:00:15;26.00;83.70
70548;DHT22;58099;43.406;3.698;2022-08-01T05:02:44;26.10;83.40
70548;DHT22;58099;43.406;3.698;2022-08-01T05:05:10;26.10;83.00
70548;DHT22;58099;43.406;3.698;2022-08-01T05:07:36;26.10;82.90
70548;DHT22;58099;43.406;3.698;2022-08-01T05:10:05;26.10;82.80
70548;DHT22;58099;43.406;3.698;2022-08-01T05:12:31;26.10;82.90
70548;DHT22;58099;43.406;3.698;2022-08-01T05:15:00;26.10;82.70
70548;DHT22;58099;43.406;3.698;2022-08-01T05:17:27;26.20;83.00
70548;DHT22;58099;43.406;3.698;2022-08-01T05:19:52;26.20;82.80
70548;DHT22;58099;43.406;3.698;2022-08-01T05:22:18;26.20;82.80
70548;DHT22;58099;43.406;3.698;2022-08-01T05:24:44;26.20;83.40
70548;DHT22;58099;43.406;3.698;2022-08-01T05:27:11;26.20;83.10
70548;DHT22;58099;43.406;3.698;2022-08-01T05:29:37;26.30;83.50
70548;DHT22;58099;43.406;3.698;2022-08-01T05:32:03;26.20;83.60
70548;DHT22;58099;43.406;3.698;2022-08-01T05:34:29;26.30;84.40
70548;DHT22;58099;43.406;3.698;2022-08-01T05:36:54;26.30;84.60
70548;DHT22;58099;43.406;3.698;2022-08-01T05:39:20;26.30;84.70
70548;DHT22;58099;43.406;3.698;2022-08-01T05:41:46;26.30;85.10
70548;DHT22;58099;43.406;3.698;2022-08-01T05:44:11;26.30;85.60
70548;DHT22;58099;43.406;3.698;2022-08-01T05:46:37;26.40;85.50
70548;DHT22;58099;43.406;3.698;2022-08-01T05:49:04;26.40;86.60
70548;DHT22;58099;43.406;3.698;2022-08-01T05:51:30;26.50;85.80
70548;DHT22;58099;43.406;3.698;2022-08-01T05:53:57;26.70;84.60
70548;DHT22;58099;43.406;3.698;2022-08-01T05:56:22;26.70;84.30
70548;DHT22;58099;43.406;3.698;2022-08-01T05:58:50;26.70;83.90
70548;DHT22;58099;43.406;3.698;2022-08-01T06:01:16;26.70;84.10
70548;DHT22;58099;43.406;3.698;2022-08-01T06:03:42;26.70;84.00
70548;DHT22;58099;43.406;3.698;2022-08-01T06:06:08;26.80;83.50
70548;DHT22;58099;43.406;3.698;2022-08-01T06:08:34;26.70;83.30
70548;DHT22;58099;43.406;3.698;2022-08-01T06:10:59;26.70;83.60
70548;DHT22;58099;43.406;3.698;2022-08-01T06:13:25;26.80;83.50
70548;DHT22;58099;43.406;3.698;2022-08-01T06:15:51;26.80;84.00
70548;DHT22;58099;43.406;3.698;2022-08-01T06:18:17;26.90;82.90
70548;DHT22;58099;43.406;3.698;2022-08-01T06:20:43;26.90;82.90
70548;DHT22;58099;43.406;3.698;2022-08-01T06:23:10;27.00;82.90
70548;DHT22;58099;43.406;3.698;2022-08-01T06:25:35;27.00;82.70
70548;DHT22;58099;43.406;3.698;2022-08-01T06:28:01;27.10;82.70
70548;DHT22;58099;43.406;3.698;2022-08-01T06:30:27;27.40;82.60
70548;DHT22;58099;43.406;3.698;2022-08-01T06:32:53;27.40;82.40
70548;DHT22;58099;43.406;3.698;2022-08-01T06:35:21;27.50;82.60
70548;DHT22;58099;43.406;3.698;2022-08-01T06:37:47;27.40;82.20
70548;DHT22;58099;43.406;3.698;2022-08-01T06:40:14;27.50;82.10
70548;DHT22;58099;43.406;3.698;2022-08-01T06:42:40;27.60;82.20
70548;DHT22;58099;43.406;3.698;2022-08-01T06:45:08;27.60;81.60
70548;DHT22;58099;43.406;3.698;2022-08-01T06:47:34;27.80;81.40
70548;DHT22;58099;43.406;3.698;2022-08-01T06:50:00;27.90;81.80
70548;DHT22;58099;43.406;3.698;2022-08-01T06:52:25;28.00;81.90
70548;DHT22;58099;43.406;3.698;2022-08-01T06:54:52;28.10;81.10
70548;DHT22;58099;43.406;3.698;2022-08-01T06:57:18;28.20;81.10
70548;DHT22;58099;43.406;3.698;2022-08-01T06:59:44;28.10;81.40
70548;DHT22;58099;43.406;3.698;2022-08-01T07:02:10;28.30;81.10
70548;DHT22;58099;43.406;3.698;2022-08-01T07:04:35;28.50;81.60
70548;DHT22;58099;43.406;3.698;2022-08-01T07:07:01;28.70;81.10
70548;DHT22;58099;43.406;3.698;2022-08-01T07:09:28;28.70;81.00
70548;DHT22;58099;43.406;3.698;2022-08-01T07:11:54;28.80;80.50
70548;DHT22;58099;43.406;3.698;2022-08-01T07:14:21;28.80;80.30
70548;DHT22;58099;43.406;3.698;2022-08-01T07:16:47;29.10;80.50
70548;DHT22;58099;43.406;3.698;2022-08-01T07:19:12;29.30;79.30
70548;DHT22;58099;43.406;3.698;2022-08-01T07:21:39;29.40;79.10
70548;DHT22;58099;43.406;3.698;2022-08-01T07:24:06;29.50;78.60
70548;DHT22;58099;43.406;3.698;2022-08-01T07:26:32;29.50;79.00
70548;DHT22;58099;43.406;3.698;2022-08-01T07:28:58;29.80;78.30
70548;DHT22;58099;43.406;3.698;2022-08-01T07:31:23;29.90;78.20
70548;DHT22;58099;43.406;3.698;2022-08-01T07:33:50;30.00;77.90
70548;DHT22;58099;43.406;3.698;2022-08-01T07:36:17;30.10;77.90
70548;DHT22;58099;43.406;3.698;2022-08-01T07:38:43;30.30;77.40
70548;DHT22;58099;43.406;3.698;2022-08-01T07:41:08;30.60;77.00
70548;DHT22;58099;43.406;3.698;2022-08-01T07:43:34;30.60;76.80
70548;DHT22;58099;43.406;3.698;2022-08-01T07:46:02;30.80;77.00
70548;DHT22;58099;43.406;3.698;2022-08-01T07:48:28;30.90;76.80
70548;DHT22;58099;43.406;3.698;2022-08-01T07:50:54;31.00;76.40
70548;DHT22;58099;43.406;3.698;2022-08-01T07:53:20;31.20;75.80
70548;DHT22;58099;43.406;3.698;2022-08-01T07:55:45;31.20;75.60
70548;DHT22;58099;43.406;3.698;2022-08-01T07:58:11;31.20;75.50
70548;DHT22;58099;43.406;3.698;2022-08-01T08:00:37;31.30;75.30
70548;DHT22;58099;43.406;3.698;2022-08-01T08:03:03;31.50;75.30
70548;DHT22;58099;43.406;3.698;2022-08-01T08:05:29;31.80;75.40
70548;DHT22;58099;43.406;3.698;2022-08-01T08:07:54;32.10;74.60
70548;DHT22;58099;43.406;3.698;2022-08-01T08:10:21;32.10;74.30
70548;DHT22;58099;43.406;3.698;2022-08-01T08:12:46;31.60;74.20
70548;DHT22;58099;43.406;3.698;2022-08-01T08:15:13;32.20;74.10
70548;DHT22;58099;43.406;3.698;2022-08-01T08:17:39;31.90;74.00
70548;DHT22;58099;43.406;3.698;2022-08-01T08:20:06;32.30;74.30
70548;DHT22;58099;43.406;3.698;2022-08-01T08:22:33;32.70;73.80
70548;DHT22;58099;43.406;3.698;2022-08-01T08:24:59;32.70;73.20
70548;DHT22;58099;43.406;3.698;2022-08-01T08:27:25;32.70;73.20
70548;DHT22;58099;43.406;3.698;2022-08-01T08:29:51;33.10;72.20
70548;DHT22;58099;43.406;3.698;2022-08-01T08:32:17;33.00;72.10
70548;DHT22;58099;43.406;3.698;2022-08-01T08:34:43;33.10;71.90
70548;DHT22;58099;43.406;3.698;2022-08-01T08:37:09;33.20;71.40
70548;DHT22;58099;43.406;3.698;2022-08-01T08:39:35;33.50;71.30
70548;DHT22;58099;43.406;3.698;2022-08-01T08:42:00;33.70;70.90
70548;DHT22;58099;43.406;3.698;2022-08-01T08:44:27;34.10;70.90
70548;DHT22;58099;43.406;3.698;2022-08-01T08:46:53;34.10;69.20
70548;DHT22;58099;43.406;3.698;2022-08-01T08:49:27;33.70;70.10
70548;DHT22;58099;43.406;3.698;2022-08-01T08:51:53;33.70;69.90
70548;DHT22;58099;43.406;3.698;2022-08-01T08:54:24;34.50;68.90
70548;DHT22;58099;43.406;3.698;2022-08-01T08:56:54;35.10;68.90
70548;DHT22;58099;43.406;3.698;2022-08-01T08:59:21;35.60;68.50
70548;DHT22;58099;43.406;3.698;2022-08-01T09:01:47;36.00;67.70
70548;DHT22;58099;43.406;3.698;2022-08-01T09:04:13;35.70;66.90
70548;DHT22;58099;43.406;3.698;2022-08-01T09:06:40;35.30;67.80
70548;DHT22;58099;43.406;3.698;2022-08-01T09:09:07;35.80;66.80
70548;DHT22;58099;43.406;3.698;2022-08-01T09:11:34;36.30;67.00
70548;DHT22;58099;43.406;3.698;2022-08-01T09:16:33;36.70;66.70
70548;DHT22;58099;43.406;3.698;2022-08-01T09:19:35;36.60;66.30
70548;DHT22;58099;43.406;3.698;2022-08-01T09:22:04;34.80;66.40
70548;DHT22;58099;43.406;3.698;2022-08-01T09:24:31;33.90;68.20
70548;DHT22;58099;43.406;3.698;2022-08-01T09:26:58;32.90;69.00
70548;DHT22;58099;43.406;3.698;2022-08-01T09:29:29;31.80;72.50
70548;DHT22;58099;43.406;3.698;2022-08-01T09:31:55;31.00;76.60
70548;DHT22;58099;43.406;3.698;2022-08-01T09:34:27;30.90;76.30
70548;DHT22;58099;43.406;3.698;2022-08-01T09:36:57;31.20;76.90
70548;DHT22;58099;43.406;3.698;2022-08-01T09:39:31;31.60;76.40
70548;DHT22;58099;43.406;3.698;2022-08-01T09:42:02;31.00;76.70
70548;DHT22;58099;43.406;3.698;2022-08-01T09:44:44;30.90;78.00
70548;DHT22;58099;43.406;3.698;2022-08-01T09:47:11;31.20;78.70
70548;DHT22;58099;43.406;3.698;2022-08-01T09:49:38;31.20;77.60
70548;DHT22;58099;43.406;3.698;2022-08-01T09:52:15;31.20;77.30
70548;DHT22;58099;43.406;3.698;2022-08-01T09:54:42;31.40;77.50
70548;DHT22;58099;43.406;3.698;2022-08-01T09:57:10;31.50;76.50
70548;DHT22;58099;43.406;3.698;2022-08-01T09:59:38;31.40;77.10
70548;DHT22;58099;43.406;3.698;2022-08-01T10:02:10;31.10;78.40
70548;DHT22;58099;43.406;3.698;2022-08-01T10:04:46;31.60;78.60
70548;DHT22;58099;43.406;3.698;2022-08-01T10:07:13;31.10;78.90
70548;DHT22;58099;43.406;3.698;2022-08-01T10:09:42;31.60;80.30
70548;DHT22;58099;43.406;3.698;2022-08-01T10:12:09;31.70;78.60
70548;DHT22;58099;43.406;3.698;2022-08-01T10:14:37;31.70;78.30
70548;DHT22;58099;43.406;3.698;2022-08-01T10:17:04;31.90;79.90
70548;DHT22;58099;43.406;3.698;2022-08-01T10:19:32;31.50;81.20
70548;DHT22;58099;43.406;3.698;2022-08-01T10:21:59;31.20;82.40
70548;DHT22;58099;43.406;3.698;2022-08-01T10:24:28;31.20;79.00
70548;DHT22;58099;43.406;3.698;2022-08-01T10:26:59;31.80;76.50
70548;DHT22;58099;43.406;3.698;2022-08-01T10:29:34;32.10;76.20
70548;DHT22;58099;43.406;3.698;2022-08-01T10:32:03;32.90;75.00
70548;DHT22;58099;43.406;3.698;2022-08-01T10:34:30;33.10;73.90
70548;DHT22;58099;43.406;3.698;2022-08-01T10:36:56;33.00;73.30
70548;DHT22;58099;43.406;3.698;2022-08-01T10:39:22;33.10;75.00
70548;DHT22;58099;43.406;3.698;2022-08-01T10:41:48;32.40;75.90
70548;DHT22;58099;43.406;3.698;2022-08-01T10:44:14;32.70;76.40
70548;DHT22;58099;43.406;3.698;2022-08-01T10:46:46;33.20;74.90
70548;DHT22;58099;43.406;3.698;2022-08-01T10:49:17;33.30;73.30
70548;DHT22;58099;43.406;3.698;2022-08-01T10:51:45;33.10;72.20
70548;DHT22;58099;43.406;3.698;2022-08-01T10:54:12;33.10;71.70
70548;DHT22;58099;43.406;3.698;2022-08-01T10:56:43;33.30;72.00
70548;DHT22;58099;43.406;3.698;2022-08-01T10:59:09;33.80;72.70
70548;DHT22;58099;43.406;3.698;2022-08-01T11:01:35;33.80;71.60
70548;DHT22;58099;43.406;3.698;2022-08-01T11:09:00;34.20;70.50
70548;DHT22;58099;43.406;3.698;2022-08-01T11:11:26;34.00;71.50
70548;DHT22;58099;43.406;3.698;2022-08-01T11:16:28;33.00;76.80
70548;DHT22;58099;43.406;3.698;2022-08-01T11:18:54;32.90;78.00
70548;DHT22;58099;43.406;3.698;2022-08-01T11:21:20;32.10;77.60
70548;DHT22;58099;43.406;3.698;2022-08-01T11:23:50;31.90;77.80
70548;DHT22;58099;43.406;3.698;2022-08-01T11:26:19;32.30;77.00
70548;DHT22;58099;43.406;3.698;2022-08-01T11:31:33;32.80;75.20
70548;DHT22;58099;43.406;3.698;2022-08-01T11:33:59;33.10;76.20
70548;DHT22;58099;43.406;3.698;2022-08-01T11:36:25;33.80;75.80
70548;DHT22;58099;43.406;3.698;2022-08-01T11:41:25;34.00;74.60
70548;DHT22;58099;43.406;3.698;2022-08-01T11:44:07;34.10;75.20
70548;DHT22;58099;43.406;3.698;2022-08-01T11:52:06;34.40;73.50
70548;DHT22;58099;43.406;3.698;2022-08-01T11:54:35;34.80;73.10
70548;DHT22;58099;43.406;3.698;2022-08-01T11:57:04;35.10;72.50
70548;DHT22;58099;43.406;3.698;2022-08-01T11:59:39;35.00;72.70
70548;DHT22;58099;43.406;3.698;2022-08-01T12:02:16;34.90;72.80
70548;DHT22;58099;43.406;3.698;2022-08-01T12:07:20;34.50;74.40
70548;DHT22;58099;43.406;3.698;2022-08-01T12:09:47;34.50;74.40
70548;DHT22;58099;43.406;3.698;2022-08-01T12:12:17;34.00;74.80
70548;DHT22;58099;43.406;3.698;2022-08-01T12:14:44;34.50;75.00
70548;DHT22;58099;43.406;3.698;2022-08-01T12:17:10;34.20;75.10
70548;DHT22;58099;43.406;3.698;2022-08-01T12:19:36;33.60;74.60
70548;DHT22;58099;43.406;3.698;2022-08-01T12:22:14;33.70;75.50
70548;DHT22;58099;43.406;3.698;2022-08-01T12:24:41;34.20;74.60
70548;DHT22;58099;43.406;3.698;2022-08-01T12:27:09;34.10;74.30
70548;DHT22;58099;43.406;3.698;2022-08-01T12:29:36;33.50;74.50
70548;DHT22;58099;43.406;3.698;2022-08-01T12:32:02;33.60;75.30
70548;DHT22;58099;43.406;3.698;2022-08-01T12:34:28;33.80;75.60
70548;DHT22;58099;43.406;3.698;2022-08-01T12:37:00;33.60;75.80
70548;DHT22;58099;43.406;3.698;2022-08-01T12:39:32;33.00;76.50
70548;DHT22;58099;43.406;3.698;2022-08-01T12:41:59;32.30;78.40
70548;DHT22;58099;43.406;3.698;2022-08-01T12:44:27;32.00;78.80
70548;DHT22;58099;43.406;3.698;2022-08-01T12:46:53;32.80;76.50
70548;DHT22;58099;43.406;3.698;2022-08-01T12:49:19;33.40;76.10
70548;DHT22;58099;43.406;3.698;2022-08-01T12:51:45;33.10;76.40
70548;DHT22;58099;43.406;3.698;2022-08-01T12:54:11;33.00;76.80
70548;DHT22;58099;43.406;3.698;2022-08-01T12:56:36;32.90;75.60
70548;DHT22;58099;43.406;3.698;2022-08-01T12:59:26;33.20;75.30
70548;DHT22;58099;43.406;3.698;2022-08-01T13:01:53;32.70;75.90
70548;DHT22;58099;43.406;3.698;2022-08-01T13:04:21;33.30;76.30
70548;DHT22;58099;43.406;3.698;2022-08-01T13:06:47;32.50;77.10
70548;DHT22;58099;43.406;3.698;2022-08-01T13:09:14;32.30;77.40
70548;DHT22;58099;43.406;3.698;2022-08-01T13:11:41;32.60;78.00
70548;DHT22;58099;43.406;3.698;2022-08-01T13:14:06;32.50;77.70
70548;DHT22;58099;43.406;3.698;2022-08-01T13:16:33;31.90;78.80
70548;DHT22;58099;43.406;3.698;2022-08-01T13:19:10;31.80;79.20
70548;DHT22;58099;43.406;3.698;2022-08-01T13:21:35;31.80;79.40
70548;DHT22;58099;43.406;3.698;2022-08-01T13:26:47;31.80;79.70
70548;DHT22;58099;43.406;3.698;2022-08-01T13:29:16;31.70;80.80
70548;DHT22;58099;43.406;3.698;2022-08-01T13:31:43;30.90;81.60
70548;DHT22;58099;43.406;3.698;2022-08-01T13:34:09;30.90;82.10
70548;DHT22;58099;43.406;3.698;2022-08-01T13:36:36;30.80;81.80
70548;DHT22;58099;43.406;3.698;2022-08-01T13:39:02;31.00;81.20
70548;DHT22;58099;43.406;3.698;2022-08-01T13:41:47;31.30;80.50
70548;DHT22;58099;43.406;3.698;2022-08-01T13:44:13;31.10;80.30
70548;DHT22;58099;43.406;3.698;2022-08-01T13:46:40;31.00;80.80
70548;DHT22;58099;43.406;3.698;2022-08-01T13:49:07;30.60;81.00
70548;DHT22;58099;43.406;3.698;2022-08-01T13:51:34;31.10;81.50
70548;DHT22;58099;43.406;3.698;2022-08-01T13:54:00;30.90;81.70
70548;DHT22;58099;43.406;3.698;2022-08-01T13:56:27;31.20;81.70
70548;DHT22;58099;43.406;3.698;2022-08-01T13:58:54;30.90;81.40
70548;DHT22;58099;43.406;3.698;2022-08-01T14:01:20;30.90;82.00
70548;DHT22;58099;43.406;3.698;2022-08-01T14:03:46;30.40;82.80
70548;DHT22;58099;43.406;3.698;2022-08-01T14:06:12;30.50;81.80
70548;DHT22;58099;43.406;3.698;2022-08-01T14:08:39;30.80;81.70
70548;DHT22;58099;43.406;3.698;2022-08-01T14:11:05;30.70;82.30
70548;DHT22;58099;43.406;3.698;2022-08-01T14:13:31;30.50;82.90
70548;DHT22;58099;43.406;3.698;2022-08-01T14:15:58;30.00;83.30
70548;DHT22;58099;43.406;3.698;2022-08-01T14:18:25;30.20;84.10
70548;DHT22;58099;43.406;3.698;2022-08-01T14:20:51;30.30;84.00
70548;DHT22;58099;43.406;3.698;2022-08-01T14:23:18;30.20;83.10
70548;DHT22;58099;43.406;3.698;2022-08-01T14:25:44;30.60;83.60
70548;DHT22;58099;43.406;3.698;2022-08-01T14:28:09;30.40;83.70
70548;DHT22;58099;43.406;3.698;2022-08-01T14:30:35;30.60;83.40
70548;DHT22;58099;43.406;3.698;2022-08-01T14:33:01;30.30;83.90
70548;DHT22;58099;43.406;3.698;2022-08-01T14:35:27;30.00;85.00
70548;DHT22;58099;43.406;3.698;2022-08-01T14:37:53;30.40;84.30
70548;DHT22;58099;43.406;3.698;2022-08-01T14:40:19;30.10;84.10
70548;DHT22;58099;43.406;3.698;2022-08-01T14:42:44;30.30;85.00
70548;DHT22;58099;43.406;3.698;2022-08-01T14:45:11;30.30;84.70
70548;DHT22;58099;43.406;3.698;2022-08-01T14:47:38;30.30;84.70
70548;DHT22;58099;43.406;3.698;2022-08-01T14:50:05;30.20;84.60
70548;DHT22;58099;43.406;3.698;2022-08-01T14:52:33;29.70;86.20
70548;DHT22;58099;43.406;3.698;2022-08-01T14:54:59;29.70;85.30
70548;DHT22;58099;43.406;3.698;2022-08-01T14:57:25;29.70;86.00
70548;DHT22;58099;43.406;3.698;2022-08-01T14:59:51;29.70;85.90
70548;DHT22;58099;43.406;3.698;2022-08-01T15:02:16;30.00;85.80
70548;DHT22;58099;43.406;3.698;2022-08-01T15:04:46;30.10;85.40
70548;DHT22;58099;43.406;3.698;2022-08-01T15:07:12;30.00;85.30
70548;DHT22;58099;43.406;3.698;2022-08-01T15:09:38;30.20;85.40
70548;DHT22;58099;43.406;3.698;2022-08-01T15:12:04;30.30;85.00
70548;DHT22;58099;43.406;3.698;2022-08-01T15:14:30;30.20;84.80
70548;DHT22;58099;43.406;3.698;2022-08-01T15:17:27;30.40;85.70
70548;DHT22;58099;43.406;3.698;2022-08-01T15:19:59;30.20;86.00
70548;DHT22;58099;43.406;3.698;2022-08-01T15:22:26;29.70;86.60
70548;DHT22;58099;43.406;3.698;2022-08-01T15:24:54;29.70;87.00
70548;DHT22;58099;43.406;3.698;2022-08-01T15:27:20;29.60;87.50
70548;DHT22;58099;43.406;3.698;2022-08-01T15:29:47;29.70;88.00
70548;DHT22;58099;43.406;3.698;2022-08-01T15:32:12;29.30;88.00
70548;DHT22;58099;43.406;3.698;2022-08-01T15:34:40;29.20;88.40
70548;DHT22;58099;43.406;3.698;2022-08-01T15:37:06;29.30;88.10
70548;DHT22;58099;43.406;3.698;2022-08-01T15:39:33;29.30;88.00
70548;DHT22;58099;43.406;3.698;2022-08-01T15:42:02;29.20;87.70
70548;DHT22;58099;43.406;3.698;2022-08-01T15:44:28;29.20;88.40
70548;DHT22;58099;43.406;3.698;2022-08-01T15:46:54;29.70;87.40
70548;DHT22;58099;43.406;3.698;2022-08-01T15:49:20;29.60;86.40
70548;DHT22;58099;43.406;3.698;2022-08-01T15:51:48;29.60;86.20
70548;DHT22;58099;43.406;3.698;2022-08-01T15:54:15;29.50;86.60
70548;DHT22;58099;43.406;3.698;2022-08-01T15:56:41;29.90;86.40
70548;DHT22;58099;43.406;3.698;2022-08-01T15:59:07;29.90;85.90
70548;DHT22;58099;43.406;3.698;2022-08-01T16:01:32;29.80;85.40
70548;DHT22;58099;43.406;3.698;2022-08-01T16:03:59;29.90;86.00
70548;DHT22;58099;43.406;3.698;2022-08-01T16:06:25;29.80;86.20
70548;DHT22;58099;43.406;3.698;2022-08-01T16:08:51;29.90;86.30